Terminal Aerodrome Forecast
Issued by NWS Jackson, MS

Home | Current Version | Previous Version | Text Only | Print | Product List | Glossary On
Versions: 1 2 3 4 5 6 7 8 9 10 11 12 13 14
000
FTUS44 KJAN 221744
TAFHBG
TAF
KHBG 221744Z 2218/2318 07004KT P6SM VCTS SCT050CB
     FM230000 07003KT P6SM FEW050 SCT250
     FM231000 00000KT 4SM BR FEW250
     FM231400 07004KT P6SM SKC=

USA.gov is the U.S. government's official web portal to all federal, state and local government web resources and services.